EHLW METAR and TAF | Updated Today

EHLW METAR

Leeuwarden Air Base

Observation time: 6 min. ago

EHLW 062055Z AUTO 19007KT 150V220 9999 NCD 11/08 Q1026 BLU

Need help? Read our tutorial on how to read METARs or read the parsed version below.

Leeuwarden Air Base (EHLW) METAR

  • Weather conditions on Thu, 06 Oct 2022 20:55:00 +0000 (6 min. ago):
  • Present conditions: Dry
  • Clouds: Nil cloud detected
  • Visibility: Greater than 10 km
  • Wind: 190 degrees at 7 knots
  • Temperature: 11 celsius
  • Dew point: 8 celsius
  • Pressure: 1026 millibars
  • Remarks: None


Useful to know...

EHLW TAF

Leeuwarden Air Base

TAF EHLW 061614Z 0617/0705 20010KT CAVOK
Observation time: 4:47 hr. ago
Need help? Read our tutorial on how to read TAFs or read the parsed version below.

Parsed version of TAF for Leeuwarden Air Base (EHLW)

  • From 06 October at 17:00 UTC, to day 07 of the month at 05:00 UTC
  • Visibility: Greater than 10 km
  • Wind: 200 degrees at 10